Time;durP1;ratioP1;P1;durP2;ratioP2;P2;SDS_P1;SDS_P2;PMS_P1;PMS_P2;Temp;Humidity;BMP_temperature;BMP_pressure;BME280_temperature;BME280_humidity;BME280_pressure;Samples;Min_cycle;Max_cycle;Signal;HPM_P1;HPM_P2
2023/03/09 00:01:40;;;;;;;11.00;8.23;;;1.70;99.90;;;;;;5067770;28;20347;-66
2023/03/09 00:04:06;;;;;;;11.55;8.52;;;1.70;99.90;;;;;;5085313;28;20052;-66
2023/03/09 00:06:32;;;;;;;8.40;7.50;;;1.70;99.90;;;;;;5080708;28;20049;-66
2023/03/09 00:08:58;;;;;;;11.57;8.35;;;1.70;99.90;;;;;;5072396;28;20036;-66
2023/03/09 00:11:24;;;;;;;10.25;8.40;;;1.70;99.90;;;;;;5084444;28;20487;-66
2023/03/09 00:13:50;;;;;;;9.60;8.50;;;1.70;99.90;;;;;;5054724;28;20154;-66
2023/03/09 00:16:21;;;;;;;11.43;8.05;;;1.80;99.90;;;;;;5088001;28;20388;-66
2023/03/09 00:18:50;;;;;;;10.63;8.48;;;1.70;99.90;;;;;;5080839;28;20044;-66
2023/03/09 00:21:34;;;;;;;9.77;8.50;;;1.70;99.90;;;;;;5080652;28;20115;-66
2023/03/09 00:24:04;;;;;;;10.60;8.65;;;1.70;99.90;;;;;;5082641;28;20484;-66
2023/03/09 00:26:30;;;;;;;9.98;8.48;;;1.70;99.90;;;;;;5080500;28;20028;-66
2023/03/09 00:28:56;;;;;;;12.85;8.38;;;1.70;99.90;;;;;;5081598;28;20036;-66
2023/03/09 00:31:22;;;;;;;10.52;8.70;;;1.60;99.90;;;;;;5088678;28;20036;-66
2023/03/09 00:33:48;;;;;;;10.68;8.88;;;1.50;99.90;;;;;;5070895;28;20036;-65
2023/03/09 00:36:15;;;;;;;10.63;8.65;;;1.60;99.90;;;;;;5080691;28;20122;-64
2023/03/09 00:38:41;;;;;;;9.85;8.43;;;1.50;99.90;;;;;;5078002;28;20055;-65
2023/03/09 00:41:06;;;;;;;9.60;8.30;;;1.50;99.90;;;;;;5083530;28;20025;-65
2023/03/09 00:43:32;;;;;;;11.40;8.00;;;1.50;99.90;;;;;;5061050;28;20047;-65
2023/03/09 00:45:58;;;;;;;11.30;8.35;;;1.50;99.90;;;;;;5080709;28;20599;-65
2023/03/09 00:48:25;;;;;;;12.10;7.72;;;1.40;99.90;;;;;;5071978;28;20039;-65
2023/03/09 00:50:51;;;;;;;12.27;9.18;;;1.40;99.90;;;;;;5082314;28;20487;-64
2023/03/09 00:53:17;;;;;;;11.65;9.27;;;1.40;99.90;;;;;;5066986;28;20108;-64
2023/03/09 00:55:42;;;;;;;11.80;9.23;;;1.40;99.90;;;;;;5080212;28;20032;-65
2023/03/09 00:58:09;;;;;;;13.75;10.57;;;1.40;99.90;;;;;;5066514;28;20098;-64
2023/03/09 01:00:35;;;;;;;12.68;10.13;;;1.40;99.90;;;;;;5065900;28;20040;-64
2023/03/09 01:03:02;;;;;;;14.55;11.55;;;1.40;99.90;;;;;;5080401;28;20040;-64
2023/03/09 01:05:28;;;;;;;14.60;11.13;;;1.40;99.90;;;;;;5074854;28;20054;-65
2023/03/09 01:07:53;;;;;;;14.65;11.52;;;1.40;99.90;;;;;;5084577;28;20115;-65
2023/03/09 01:10:19;;;;;;;15.02;10.85;;;1.30;99.90;;;;;;5067765;28;20532;-65
2023/03/09 01:12:45;;;;;;;14.38;11.90;;;1.30;99.90;;;;;;5065027;28;20100;-65
2023/03/09 01:15:12;;;;;;;13.95;10.85;;;1.30;99.90;;;;;;5073703;28;20047;-66
2023/03/09 01:17:38;;;;;;;16.15;13.05;;;1.30;99.90;;;;;;5065560;28;20031;-65
2023/03/09 01:20:05;;;;;;;16.58;12.77;;;1.30;99.90;;;;;;5081868;28;20139;-65
2023/03/09 01:22:31;;;;;;;14.40;11.40;;;1.30;99.90;;;;;;5070488;28;20055;-65
2023/03/09 01:24:57;;;;;;;17.27;12.23;;;1.30;99.90;;;;;;5067371;28;20044;-65
2023/03/09 01:27:23;;;;;;;13.25;11.35;;;1.20;99.90;;;;;;5084590;28;20448;-65
2023/03/09 01:29:48;;;;;;;14.50;11.40;;;1.20;99.90;;;;;;5082837;28;20039;-65
2023/03/09 01:32:14;;;;;;;15.18;11.95;;;1.20;99.90;;;;;;5067888;28;20047;-65
2023/03/09 01:34:40;;;;;;;14.50;11.27;;;1.20;99.90;;;;;;5084432;28;20061;-65
2023/03/09 01:37:06;;;;;;;13.38;11.23;;;1.10;99.90;;;;;;5065404;28;20066;-65
2023/03/09 01:39:31;;;;;;;13.60;11.13;;;1.10;99.90;;;;;;5051585;28;20136;-65
2023/03/09 01:41:57;;;;;;;17.00;11.40;;;1.10;99.90;;;;;;5060362;28;20051;-65
2023/03/09 01:44:23;;;;;;;14.23;12.20;;;1.10;99.90;;;;;;5087746;28;20039;-65
2023/03/09 01:46:56;;;;;;;14.32;10.30;;;1.10;99.90;;;;;;5084887;28;20471;-65
2023/03/09 01:49:25;;;;;;;11.38;9.65;;;1.00;99.90;;;;;;5084188;28;20035;-65
2023/03/09 01:52:24;;;;;;;12.82;10.35;;;1.10;99.90;;;;;;5068617;28;20048;-65
2023/03/09 01:55:07;;;;;;;14.77;10.52;;;1.00;99.90;;;;;;5083494;28;20127;-65
2023/03/09 01:57:36;;;;;;;13.88;10.23;;;1.00;99.90;;;;;;5083426;28;20050;-65
2023/03/09 02:00:11;;;;;;;13.30;10.23;;;1.10;99.90;;;;;;5068603;28;20120;-65
2023/03/09 02:02:41;;;;;;;12.65;9.95;;;1.00;99.90;;;;;;5086695;28;20036;-65
2023/03/09 02:05:16;;;;;;;13.00;10.77;;;1.00;99.90;;;;;;5066878;28;20108;-65
2023/03/09 02:07:46;;;;;;;14.75;11.07;;;1.00;99.90;;;;;;5081477;28;20041;-65
2023/03/09 02:10:29;;;;;;;17.75;11.40;;;1.10;99.90;;;;;;5086694;28;20115;-65
2023/03/09 02:13:01;;;;;;;14.25;10.63;;;1.10;99.90;;;;;;5058810;28;20036;-65
2023/03/09 02:15:27;;;;;;;13.15;10.82;;;1.10;99.90;;;;;;5057956;28;20044;-65
2023/03/09 02:17:52;;;;;;;17.80;12.05;;;1.10;99.90;;;;;;5080344;28;20085;-65
2023/03/09 02:20:34;;;;;;;14.63;11.07;;;1.10;99.90;;;;;;5079508;28;20106;-65
2023/03/09 02:23:02;;;;;;;14.18;11.48;;;1.10;99.90;;;;;;5080228;28;20043;-65
2023/03/09 02:25:39;;;;;;;15.75;11.48;;;1.10;99.90;;;;;;5082054;28;20112;-65
2023/03/09 02:28:06;;;;;;;14.98;11.80;;;1.10;99.90;;;;;;5067298;28;20173;-65
2023/03/09 02:30:35;;;;;;;16.98;11.43;;;1.10;99.90;;;;;;5058856;28;20499;-65
2023/03/09 02:33:09;;;;;;;14.75;11.45;;;1.20;99.90;;;;;;5081941;28;20194;-65
2023/03/09 02:35:36;;;;;;;13.95;10.75;;;1.10;99.90;;;;;;5081833;28;20036;-66
2023/03/09 02:38:02;;;;;;;13.52;11.20;;;1.10;99.90;;;;;;5082178;28;20024;-66
2023/03/09 02:40:34;;;;;;;12.05;10.52;;;1.10;99.90;;;;;;5073728;28;20039;-65
2023/03/09 02:43:02;;;;;;;14.48;9.43;;;1.10;99.90;;;;;;5068884;28;20067;-66
2023/03/09 02:45:30;;;;;;;11.77;10.27;;;1.10;99.90;;;;;;5063926;28;20054;-65
2023/03/09 02:47:57;;;;;;;15.32;10.48;;;1.20;99.90;;;;;;5069404;28;20063;-65
2023/03/09 02:50:24;;;;;;;11.68;10.15;;;1.10;99.90;;;;;;5064965;28;20115;-65
2023/03/09 02:52:49;;;;;;;13.48;11.13;;;1.10;99.90;;;;;;5079452;28;20032;-66
2023/03/09 02:55:15;;;;;;;14.13;10.82;;;1.10;99.90;;;;;;5082627;28;20603;-65
2023/03/09 02:57:41;;;;;;;12.20;9.30;;;1.10;99.90;;;;;;5076211;28;20037;-65
2023/03/09 03:00:10;;;;;;;12.32;9.52;;;1.20;99.90;;;;;;5073377;28;20032;-66
2023/03/09 03:02:37;;;;;;;12.95;9.77;;;1.10;99.90;;;;;;5089664;28;20379;-66
2023/03/09 03:05:03;;;;;;;12.00;9.98;;;1.20;99.90;;;;;;5083655;28;20053;-65
2023/03/09 03:07:29;;;;;;;12.80;9.75;;;1.20;99.90;;;;;;5048941;28;20052;-65
2023/03/09 03:09:55;;;;;;;12.82;10.27;;;1.20;99.90;;;;;;5086293;28;20486;-66
2023/03/09 03:12:21;;;;;;;10.90;9.38;;;1.20;99.90;;;;;;5069050;28;20036;-66
2023/03/09 03:14:47;;;;;;;12.65;10.23;;;1.20;99.90;;;;;;5084684;28;20742;-66
2023/03/09 03:17:12;;;;;;;12.57;9.20;;;1.10;99.90;;;;;;5082116;28;20044;-66
2023/03/09 03:19:38;;;;;;;12.07;9.25;;;1.20;99.90;;;;;;5072639;28;20036;-66
2023/03/09 03:22:05;;;;;;;13.68;10.40;;;1.20;99.90;;;;;;5085984;28;20113;-66
2023/03/09 03:24:34;;;;;;;13.02;9.45;;;1.20;99.90;;;;;;5088124;28;20124;-66
2023/03/09 03:27:00;;;;;;;14.63;10.43;;;1.20;99.90;;;;;;5070211;28;20046;-65
2023/03/09 03:29:25;;;;;;;12.40;9.98;;;1.20;99.90;;;;;;5085365;28;20501;-66
2023/03/09 03:31:51;;;;;;;10.98;8.88;;;1.20;99.90;;;;;;5085823;28;20040;-66
2023/03/09 03:34:17;;;;;;;11.73;9.93;;;1.20;99.90;;;;;;5062277;28;20076;-66
2023/03/09 03:36:42;;;;;;;11.35;8.82;;;1.20;99.90;;;;;;5082041;28;20070;-66
2023/03/09 03:39:08;;;;;;;11.30;9.23;;;1.20;99.90;;;;;;5079653;28;20040;-65
2023/03/09 03:41:34;;;;;;;11.80;9.32;;;1.20;99.90;;;;;;5067643;28;20123;-65
2023/03/09 03:44:00;;;;;;;12.98;10.38;;;1.20;99.90;;;;;;5087692;28;20039;-66
2023/03/09 03:46:26;;;;;;;12.13;9.82;;;1.20;99.90;;;;;;5080818;28;20111;-66
2023/03/09 03:48:51;;;;;;;11.75;9.93;;;1.20;99.90;;;;;;5085894;28;20036;-65
2023/03/09 03:51:17;;;;;;;13.77;10.90;;;1.20;99.90;;;;;;5085858;28;20037;-66
2023/03/09 03:53:43;;;;;;;12.55;10.05;;;1.10;99.90;;;;;;5066662;28;20071;-66
2023/03/09 03:56:09;;;;;;;14.13;10.43;;;1.10;99.90;;;;;;5062830;28;20082;-66
2023/03/09 03:58:35;;;;;;;14.43;10.73;;;1.10;99.90;;;;;;5068210;28;20467;-65
2023/03/09 04:01:03;;;;;;;12.20;9.82;;;1.10;99.90;;;;;;5085140;28;20032;-66
2023/03/09 04:03:29;;;;;;;12.23;10.23;;;1.10;99.90;;;;;;5102805;28;20111;-65
2023/03/09 04:05:55;;;;;;;15.55;10.90;;;1.10;99.90;;;;;;5066878;28;20452;-65
2023/03/09 04:08:20;;;;;;;12.82;9.30;;;1.10;99.90;;;;;;5082842;28;20625;-65
2023/03/09 04:10:46;;;;;;;14.77;10.55;;;1.10;99.90;;;;;;5069910;28;20130;-66
2023/03/09 04:13:12;;;;;;;12.52;10.20;;;1.10;99.90;;;;;;5084214;28;20032;-66
2023/03/09 04:15:38;;;;;;;14.05;10.98;;;1.00;99.90;;;;;;5083025;28;20040;-65
2023/03/09 04:18:04;;;;;;;14.10;10.57;;;1.10;99.90;;;;;;5085254;28;20405;-66
2023/03/09 04:20:30;;;;;;;14.27;11.52;;;1.00;99.90;;;;;;5082415;28;20036;-65
2023/03/09 04:22:55;;;;;;;13.90;10.15;;;1.00;99.90;;;;;;5086364;28;20047;-66
2023/03/09 04:25:21;;;;;;;14.40;10.77;;;1.00;99.90;;;;;;5080776;28;20071;-65
2023/03/09 04:27:47;;;;;;;15.15;10.85;;;1.00;99.90;;;;;;5085977;28;20039;-66
2023/03/09 04:30:13;;;;;;;14.48;11.50;;;1.00;99.90;;;;;;5067824;28;20483;-66
2023/03/09 04:32:39;;;;;;;13.52;11.23;;;1.00;99.90;;;;;;5081774;28;20130;-65
2023/03/09 04:35:06;;;;;;;13.35;11.13;;;0.90;99.90;;;;;;5079458;28;20532;-66
2023/03/09 04:37:31;;;;;;;15.48;12.73;;;1.00;99.90;;;;;;5064874;28;20051;-66
2023/03/09 04:39:57;;;;;;;15.15;12.48;;;1.00;99.90;;;;;;5086411;28;20047;-66
2023/03/09 04:42:23;;;;;;;14.60;11.98;;;1.00;99.90;;;;;;5064188;28;20448;-66
2023/03/09 04:44:48;;;;;;;15.90;12.50;;;1.00;99.90;;;;;;5082478;28;20032;-66
2023/03/09 04:47:14;;;;;;;16.45;12.38;;;1.10;99.90;;;;;;5079338;28;20040;-66
2023/03/09 04:49:41;;;;;;;15.20;12.40;;;1.10;99.90;;;;;;5067731;28;20040;-65
2023/03/09 04:52:07;;;;;;;16.40;13.52;;;1.00;99.90;;;;;;5067406;28;20609;-65
2023/03/09 04:54:33;;;;;;;16.75;12.98;;;1.10;99.90;;;;;;5066546;28;20208;-65
2023/03/09 04:56:59;;;;;;;15.70;12.35;;;1.10;99.90;;;;;;5082899;28;20122;-65
2023/03/09 04:59:24;;;;;;;16.83;13.43;;;1.10;99.90;;;;;;5063075;28;20040;-65
2023/03/09 05:01:50;;;;;;;20.33;14.60;;;1.10;99.90;;;;;;5078329;28;20703;-66
2023/03/09 05:04:16;;;;;;;18.42;14.52;;;1.10;99.90;;;;;;5062920;28;20082;-66
2023/03/09 05:06:44;;;;;;;17.30;14.38;;;1.00;99.90;;;;;;5081702;28;20052;-66
2023/03/09 05:09:10;;;;;;;19.60;14.20;;;1.00;99.90;;;;;;5069391;28;20063;-65
2023/03/09 05:11:36;;;;;;;19.80;14.02;;;1.00;99.90;;;;;;5082820;28;20048;-65
2023/03/09 05:14:02;;;;;;;20.65;15.18;;;1.00;99.90;;;;;;5081172;28;20196;-65
2023/03/09 05:16:28;;;;;;;20.20;14.48;;;1.00;99.90;;;;;;5066176;28;20544;-65
2023/03/09 05:18:54;;;;;;;19.50;14.30;;;1.00;99.90;;;;;;5084119;28;20282;-65
2023/03/09 05:21:19;;;;;;;20.83;14.48;;;0.90;99.90;;;;;;5082070;28;20036;-66
2023/03/09 05:23:45;;;;;;;22.42;16.05;;;0.90;99.90;;;;;;5064194;28;20048;-65
2023/03/09 05:26:11;;;;;;;21.30;15.80;;;0.90;99.90;;;;;;5084399;28;20078;-65
2023/03/09 05:28:38;;;;;;;20.77;15.23;;;0.90;99.90;;;;;;5070944;28;20051;-65
2023/03/09 05:31:12;;;;;;;22.88;16.13;;;0.90;99.90;;;;;;5080920;28;20083;-65
2023/03/09 05:33:38;;;;;;;22.73;16.17;;;0.90;99.90;;;;;;5081877;28;20052;-66
2023/03/09 05:36:15;;;;;;;21.92;15.95;;;0.90;99.90;;;;;;5064372;28;20707;-66
2023/03/09 05:38:41;;;;;;;20.23;15.77;;;0.90;99.90;;;;;;5082906;28;20495;-66
2023/03/09 05:41:06;;;;;;;20.35;16.38;;;0.90;99.90;;;;;;5081012;28;20139;-65
2023/03/09 05:43:35;;;;;;;22.75;16.73;;;0.90;99.90;;;;;;5081142;28;20115;-64
2023/03/09 05:46:02;;;;;;;21.85;16.70;;;0.90;99.90;;;;;;5067596;28;20448;-65
2023/03/09 05:48:28;;;;;;;22.58;15.88;;;0.90;99.90;;;;;;5085400;28;20044;-65
2023/03/09 05:50:53;;;;;;;22.45;16.25;;;0.90;99.90;;;;;;5080956;28;20098;-65
2023/03/09 05:53:19;;;;;;;23.58;17.20;;;0.80;99.90;;;;;;5063724;28;20036;-65
2023/03/09 05:55:51;;;;;;;21.65;16.55;;;0.90;99.90;;;;;;5079064;28;20032;-65
2023/03/09 05:58:17;;;;;;;21.25;15.60;;;0.90;99.90;;;;;;5082055;28;20044;-65
2023/03/09 06:00:42;;;;;;;23.63;16.55;;;0.90;99.90;;;;;;5076804;28;20036;-65
2023/03/09 06:03:08;;;;;;;25.02;16.73;;;0.90;99.90;;;;;;5081142;28;20056;-65
2023/03/09 06:05:34;;;;;;;23.20;17.02;;;0.90;99.90;;;;;;5084643;28;20321;-65
2023/03/09 06:08:00;;;;;;;23.13;16.75;;;0.90;99.90;;;;;;5064025;28;20070;-65
2023/03/09 06:10:25;;;;;;;22.50;16.63;;;0.90;99.90;;;;;;5070183;28;20088;-65
2023/03/09 06:12:51;;;;;;;22.10;16.33;;;0.90;99.90;;;;;;5062762;28;20087;-65
2023/03/09 06:15:17;;;;;;;22.10;16.52;;;0.90;99.90;;;;;;5080798;28;20040;-64
2023/03/09 06:17:43;;;;;;;22.48;17.00;;;0.90;99.90;;;;;;5078550;28;20038;-65
2023/03/09 06:20:09;;;;;;;20.55;16.13;;;0.90;99.90;;;;;;5077909;28;20040;-66
2023/03/09 06:22:35;;;;;;;22.33;16.75;;;0.90;99.90;;;;;;5070027;28;20080;-65
2023/03/09 06:25:01;;;;;;;23.02;16.77;;;1.00;99.90;;;;;;5064533;28;20042;-65
2023/03/09 06:27:27;;;;;;;23.55;17.05;;;1.00;99.90;;;;;;5083780;28;20031;-65
2023/03/09 06:29:54;;;;;;;22.95;16.80;;;1.00;99.90;;;;;;5079156;28;20032;-65
2023/03/09 06:32:21;;;;;;;21.90;17.02;;;1.00;99.90;;;;;;5079719;28;20055;-65
2023/03/09 06:34:46;;;;;;;23.10;17.25;;;1.00;99.90;;;;;;5064455;28;20428;-65
2023/03/09 06:37:12;;;;;;;24.45;17.02;;;1.00;99.90;;;;;;5081853;28;20075;-65
2023/03/09 06:39:38;;;;;;;22.60;17.02;;;1.00;99.90;;;;;;5067379;28;20036;-65
2023/03/09 06:42:05;;;;;;;22.90;16.50;;;1.00;99.90;;;;;;5069090;28;20322;-65
2023/03/09 06:44:31;;;;;;;22.92;17.13;;;1.00;99.90;;;;;;5063297;28;20691;-65
2023/03/09 06:46:56;;;;;;;23.13;15.70;;;1.00;99.90;;;;;;5066020;28;20073;-66
2023/03/09 06:49:22;;;;;;;24.50;16.60;;;1.00;99.90;;;;;;5063368;28;20040;-65
2023/03/09 06:51:48;;;;;;;21.50;16.13;;;1.00;99.90;;;;;;5080250;28;20039;-66
2023/03/09 06:54:14;;;;;;;22.42;16.55;;;1.10;99.90;;;;;;5067856;28;20425;-66
2023/03/09 06:56:40;;;;;;;25.75;17.55;;;1.10;99.90;;;;;;5079461;28;21593;-66
2023/03/09 06:59:06;;;;;;;25.73;18.10;;;1.10;99.90;;;;;;5062926;28;20091;-66
2023/03/09 07:01:33;;;;;;;23.27;16.70;;;1.10;99.90;;;;;;5081180;28;20040;-66
2023/03/09 07:03:59;;;;;;;22.58;16.13;;;1.20;99.90;;;;;;5081977;28;20380;-66
2023/03/09 07:06:25;;;;;;;24.45;17.27;;;1.20;99.90;;;;;;5083025;28;20086;-66
2023/03/09 07:08:51;;;;;;;23.13;16.40;;;1.20;99.90;;;;;;5082531;28;20099;-65
2023/03/09 07:11:16;;;;;;;22.65;16.05;;;1.30;99.90;;;;;;5080135;28;20043;-65
2023/03/09 07:13:42;;;;;;;20.40;16.27;;;1.30;99.90;;;;;;5082057;28;20090;-65
2023/03/09 07:16:08;;;;;;;21.08;16.63;;;1.30;99.90;;;;;;5074197;28;20040;-65
2023/03/09 07:18:34;;;;;;;22.17;16.38;;;1.30;99.90;;;;;;5084695;28;20481;-65
2023/03/09 07:21:02;;;;;;;21.80;16.63;;;1.40;99.90;;;;;;5082821;28;20085;-65
2023/03/09 07:23:29;;;;;;;23.83;16.70;;;1.40;99.90;;;;;;5078778;28;20402;-65
2023/03/09 07:25:58;;;;;;;22.70;15.95;;;1.40;99.90;;;;;;5074227;28;20032;-65
2023/03/09 07:28:23;;;;;;;22.45;16.83;;;1.50;99.90;;;;;;5079079;28;20040;-65
2023/03/09 07:30:50;;;;;;;20.85;15.85;;;1.50;99.90;;;;;;5066470;28;20048;-65
2023/03/09 07:33:16;;;;;;;21.15;15.88;;;1.50;99.90;;;;;;5083090;28;20490;-65
2023/03/09 07:35:41;;;;;;;22.67;16.67;;;1.50;99.90;;;;;;5073588;28;20127;-65
2023/03/09 07:38:07;;;;;;;21.67;16.67;;;1.50;99.90;;;;;;5060773;28;20074;-65
2023/03/09 07:40:33;;;;;;;21.60;16.42;;;1.50;99.90;;;;;;5049869;28;20040;-66
2023/03/09 07:42:59;;;;;;;23.23;17.30;;;1.60;99.90;;;;;;5061571;28;20036;-65
2023/03/09 07:45:25;;;;;;;22.05;16.83;;;1.60;99.90;;;;;;5060412;28;20048;-65
2023/03/09 07:47:50;;;;;;;21.67;17.05;;;1.60;99.90;;;;;;5084970;28;20530;-65
2023/03/09 07:50:17;;;;;;;21.63;17.13;;;1.70;99.90;;;;;;5088435;28;20032;-65
2023/03/09 07:52:43;;;;;;;23.52;15.77;;;1.70;99.90;;;;;;5065047;28;20040;-66
2023/03/09 07:55:11;;;;;;;19.05;15.60;;;1.80;99.90;;;;;;5083829;28;20494;-66
2023/03/09 07:57:39;;;;;;;20.98;15.60;;;1.80;99.90;;;;;;5084826;28;20105;-66
2023/03/09 08:00:12;;;;;;;19.63;16.05;;;1.80;99.90;;;;;;5083964;28;20484;-66
2023/03/09 08:02:40;;;;;;;19.77;15.07;;;1.80;99.90;;;;;;5081520;28;20050;-66
2023/03/09 08:05:10;;;;;;;20.75;15.70;;;1.80;99.90;;;;;;5060961;28;20462;-66
2023/03/09 08:07:36;;;;;;;20.92;16.15;;;1.80;99.90;;;;;;5071394;28;20086;-65
2023/03/09 08:10:03;;;;;;;20.30;16.80;;;1.90;99.90;;;;;;5084463;28;20040;-66
2023/03/09 08:12:29;;;;;;;20.83;15.90;;;2.00;99.90;;;;;;5081528;28;20174;-66
2023/03/09 08:14:54;;;;;;;21.08;16.88;;;2.10;99.90;;;;;;5087255;28;20123;-65
2023/03/09 08:17:20;;;;;;;19.80;16.02;;;2.10;99.90;;;;;;5072270;28;20044;-66
2023/03/09 08:19:46;;;;;;;20.55;16.45;;;2.20;99.90;;;;;;5084454;28;20043;-66
2023/03/09 08:22:11;;;;;;;19.98;16.17;;;2.20;99.90;;;;;;5084414;28;20067;-66
2023/03/09 08:24:37;;;;;;;19.23;16.15;;;2.20;99.90;;;;;;5083969;28;20036;-65
2023/03/09 08:27:03;;;;;;;20.77;16.02;;;2.20;99.90;;;;;;5071309;28;20028;-65
2023/03/09 08:29:29;;;;;;;20.77;16.38;;;2.30;99.90;;;;;;5065654;28;20554;-65
2023/03/09 08:31:54;;;;;;;20.55;15.52;;;2.40;99.90;;;;;;5071626;28;20043;-65
2023/03/09 08:34:20;;;;;;;20.73;16.20;;;2.50;99.90;;;;;;5062156;28;20071;-65
2023/03/09 08:36:46;;;;;;;17.88;15.50;;;2.50;99.90;;;;;;5064710;28;20128;-65
2023/03/09 08:39:12;;;;;;;19.23;15.70;;;2.60;99.90;;;;;;5086089;28;20107;-66
2023/03/09 08:41:38;;;;;;;18.67;15.98;;;2.60;99.90;;;;;;5065944;28;20128;-65
2023/03/09 08:44:04;;;;;;;19.77;16.25;;;2.60;99.90;;;;;;5082314;28;20526;-66
2023/03/09 08:46:30;;;;;;;19.27;16.05;;;2.60;99.90;;;;;;5068119;28;20067;-65
2023/03/09 08:48:56;;;;;;;17.27;14.65;;;2.70;99.90;;;;;;5085386;28;20079;-64
2023/03/09 08:51:22;;;;;;;19.52;16.10;;;2.60;99.90;;;;;;5066007;28;20423;-65
2023/03/09 08:53:48;;;;;;;18.77;15.45;;;2.60;99.90;;;;;;5068485;28;20172;-64
2023/03/09 08:56:14;;;;;;;17.85;15.40;;;2.70;99.90;;;;;;5085765;28;20078;-65
2023/03/09 08:58:40;;;;;;;18.88;15.60;;;2.70;99.90;;;;;;5085808;28;20318;-64
2023/03/09 09:01:08;;;;;;;19.75;16.23;;;2.60;99.90;;;;;;5064613;28;20549;-65
2023/03/09 09:03:34;;;;;;;20.17;16.67;;;2.60;99.90;;;;;;5068234;28;20036;-65
2023/03/09 09:06:06;;;;;;;21.15;16.75;;;2.60;99.90;;;;;;5082086;28;20055;-65
2023/03/09 09:08:32;;;;;;;20.05;16.20;;;2.50;99.90;;;;;;5063330;28;20044;-65
2023/03/09 09:10:58;;;;;;;19.30;15.85;;;2.60;99.90;;;;;;5059273;28;20047;-65
2023/03/09 09:13:24;;;;;;;19.83;15.85;;;2.60;99.90;;;;;;5069339;28;20040;-65
2023/03/09 09:15:54;;;;;;;20.20;15.85;;;2.60;99.90;;;;;;5069755;28;20051;-65
2023/03/09 09:18:20;;;;;;;21.10;16.55;;;2.70;99.90;;;;;;5084345;28;20670;-65
2023/03/09 09:20:47;;;;;;;19.80;15.95;;;2.70;99.90;;;;;;5069345;28;20048;-65
2023/03/09 09:23:13;;;;;;;21.75;16.38;;;2.80;99.90;;;;;;5084044;28;20106;-65
2023/03/09 09:25:39;;;;;;;19.73;15.80;;;2.90;99.90;;;;;;5067946;28;20119;-65
2023/03/09 09:28:05;;;;;;;18.60;15.45;;;3.00;99.90;;;;;;5061466;28;20039;-65
2023/03/09 09:30:32;;;;;;;21.42;16.67;;;3.00;99.90;;;;;;5075390;28;20048;-65
2023/03/09 09:33:00;;;;;;;18.05;15.02;;;3.10;99.90;;;;;;5082455;28;20047;-65
2023/03/09 09:35:26;;;;;;;19.60;16.42;;;3.20;99.90;;;;;;5083664;28;20113;-65
2023/03/09 09:37:54;;;;;;;19.30;16.23;;;3.10;99.90;;;;;;5080419;28;20506;-65
2023/03/09 09:40:20;;;;;;;20.85;16.67;;;3.10;99.90;;;;;;5080521;28;20037;-65
2023/03/09 09:42:47;;;;;;;19.98;15.70;;;3.30;99.90;;;;;;5070553;28;20066;-66
2023/03/09 09:45:36;;;;;;;18.75;15.63;;;3.20;99.90;;;;;;5080217;28;20478;-65
2023/03/09 09:48:06;;;;;;;17.00;15.18;;;3.20;99.90;;;;;;5069680;28;20087;-65
2023/03/09 09:50:57;;;;;;;17.60;15.25;;;3.10;99.90;;;;;;5066780;28;20043;-66
2023/03/09 09:53:32;;;;;;;17.98;15.32;;;3.20;99.90;;;;;;5067173;28;20055;-65
2023/03/09 09:56:00;;;;;;;19.17;15.57;;;3.10;99.90;;;;;;5079913;28;20036;-65
2023/03/09 09:58:40;;;;;;;19.23;16.40;;;3.20;99.90;;;;;;5064856;28;20040;-65
2023/03/09 10:01:19;;;;;;;18.58;15.43;;;3.20;99.90;;;;;;5069480;28;20079;-65
2023/03/09 10:03:49;;;;;;;19.67;16.40;;;3.20;99.90;;;;;;5083267;28;20038;-65
2023/03/09 10:06:20;;;;;;;21.85;15.90;;;3.20;99.90;;;;;;5095312;28;20131;-65
2023/03/09 10:08:57;;;;;;;19.00;16.15;;;3.20;99.90;;;;;;5093633;28;20434;-66
2023/03/09 10:11:31;;;;;;;18.60;15.23;;;3.20;99.90;;;;;;5068871;28;20047;-65
2023/03/09 10:14:26;;;;;;;18.13;15.75;;;3.20;99.90;;;;;;5068057;28;20449;-65
2023/03/09 10:17:04;;;;;;;17.95;14.30;;;3.10;99.90;;;;;;5076133;28;20040;-65
2023/03/09 10:19:38;;;;;;;19.70;14.25;;;3.10;99.90;;;;;;5082670;28;20119;-65
2023/03/09 10:22:21;;;;;;;16.75;14.70;;;3.20;99.90;;;;;;5080785;28;20047;-66
2023/03/09 10:24:51;;;;;;;19.30;15.50;;;3.20;99.90;;;;;;5051311;28;20708;-66
2023/03/09 10:27:25;;;;;;;20.67;16.70;;;3.20;99.90;;;;;;5075074;28;20523;-66
2023/03/09 10:30:00;;;;;;;18.45;15.23;;;3.20;99.90;;;;;;5095064;28;20047;-66
2023/03/09 10:32:35;;;;;;;19.65;15.43;;;3.30;99.90;;;;;;5070874;28;20055;-66
2023/03/09 10:35:20;;;;;;;20.75;15.32;;;3.30;99.90;;;;;;5077585;28;20120;-66
2023/03/09 10:37:50;;;;;;;17.55;15.00;;;3.30;99.90;;;;;;5072227;28;20407;-66
2023/03/09 10:40:48;;;;;;;19.10;15.65;;;3.30;99.90;;;;;;5063968;28;20380;-66
2023/03/09 10:43:23;;;;;;;18.42;15.88;;;3.30;99.90;;;;;;5076272;28;20044;-66
2023/03/09 10:45:49;;;;;;;17.70;15.35;;;3.40;99.90;;;;;;5078846;28;20043;-66
2023/03/09 10:48:24;;;;;;;17.42;13.68;;;3.40;99.90;;;;;;5076819;28;20040;-66
2023/03/09 10:51:04;;;;;;;17.33;15.05;;;3.50;99.90;;;;;;5066519;28;20205;-66
2023/03/09 10:53:35;;;;;;;17.52;14.95;;;3.50;99.90;;;;;;5063801;28;20081;-66
2023/03/09 10:56:29;;;;;;;16.35;14.07;;;3.50;99.90;;;;;;5080927;28;20040;-66
2023/03/09 10:59:07;;;;;;;18.67;15.68;;;3.60;99.90;;;;;;5079673;28;20040;-66
2023/03/09 11:01:54;;;;;;;18.02;14.50;;;3.70;99.90;;;;;;5085918;28;20544;-66
2023/03/09 11:04:23;;;;;;;16.27;14.30;;;3.70;99.90;;;;;;5064156;28;20032;-65
2023/03/09 11:07:22;;;;;;;16.65;14.88;;;3.70;99.90;;;;;;5067331;28;20232;-65
2023/03/09 11:09:52;;;;;;;17.48;14.98;;;3.80;99.90;;;;;;5044029;28;20057;-66
2023/03/09 11:12:25;;;;;;;16.52;14.50;;;3.80;99.90;;;;;;5065579;28;20055;-66
2023/03/09 11:14:54;;;;;;;17.77;14.98;;;3.80;99.90;;;;;;5061148;28;20076;-66
2023/03/09 11:17:42;;;;;;;15.98;14.02;;;3.80;99.90;;;;;;5051565;28;20098;-65
2023/03/09 11:20:31;;;;;;;18.90;16.30;;;3.90;99.90;;;;;;5065389;28;20071;-66
2023/03/09 11:23:04;;;;;;;16.52;14.20;;;3.80;99.90;;;;;;5079651;28;20064;-65
2023/03/09 11:25:49;;;;;;;17.00;14.90;;;3.80;99.90;;;;;;5083100;28;20184;-66
2023/03/09 11:28:34;;;;;;;18.20;14.90;;;3.90;99.90;;;;;;5071938;28;20047;-65
2023/03/09 11:31:00;;;;;;;17.27;14.38;;;4.00;99.90;;;;;;5085812;28;20040;-66
2023/03/09 11:33:28;;;;;;;16.65;14.85;;;4.10;99.90;;;;;;5056176;28;20063;-66
2023/03/09 11:35:54;;;;;;;17.52;15.23;;;4.10;99.90;;;;;;5088266;28;20556;-67
2023/03/09 11:38:22;;;;;;;18.00;16.10;;;4.00;99.90;;;;;;5072522;28;20455;-67
2023/03/09 11:40:55;;;;;;;18.58;14.75;;;3.90;99.90;;;;;;5074754;28;20039;-67
2023/03/09 11:43:34;;;;;;;17.80;14.85;;;4.00;99.90;;;;;;5085123;28;20111;-66
2023/03/09 11:46:06;;;;;;;18.42;15.23;;;3.90;99.90;;;;;;5071999;28;20494;-66
2023/03/09 11:48:56;;;;;;;16.92;15.13;;;3.90;99.90;;;;;;5085446;28;20539;-67
2023/03/09 11:51:30;;;;;;;16.13;14.40;;;3.90;99.90;;;;;;5084217;28;20043;-64
2023/03/09 11:54:24;;;;;;;18.75;15.10;;;3.90;99.90;;;;;;5087456;28;20065;-67
2023/03/09 11:56:52;;;;;;;16.95;15.15;;;3.90;99.90;;;;;;5098517;28;20066;-66
2023/03/09 11:59:22;;;;;;;17.98;14.25;;;3.80;99.90;;;;;;5052755;28;20039;-67
2023/03/09 12:02:01;;;;;;;19.52;15.80;;;3.90;99.90;;;;;;5048276;28;20032;-67
2023/03/09 12:04:27;;;;;;;17.35;15.25;;;3.90;99.90;;;;;;5066354;28;20032;-66
2023/03/09 12:07:00;;;;;;;17.90;15.63;;;4.00;99.90;;;;;;5083729;28;20125;-65
2023/03/09 12:09:32;;;;;;;17.30;15.43;;;4.00;99.90;;;;;;5060947;28;20059;-65
2023/03/09 12:12:04;;;;;;;16.83;14.90;;;4.00;99.90;;;;;;5065545;28;20044;-64
2023/03/09 12:14:40;;;;;;;17.55;14.77;;;4.00;99.90;;;;;;5086835;28;20040;-65
2023/03/09 12:17:21;;;;;;;16.83;14.98;;;4.10;99.90;;;;;;5086572;28;20104;-65
2023/03/09 12:19:55;;;;;;;17.08;15.27;;;4.00;99.90;;;;;;5063159;28;20044;-65
2023/03/09 12:22:47;;;;;;;18.50;15.98;;;4.00;99.90;;;;;;5081106;28;20032;-66
2023/03/09 12:25:24;;;;;;;16.63;14.77;;;3.90;99.90;;;;;;5048625;28;20045;-66
2023/03/09 12:27:53;;;;;;;18.70;15.23;;;4.00;99.90;;;;;;5070458;28;20059;-66
2023/03/09 12:30:50;;;;;;;16.77;14.82;;;4.00;99.90;;;;;;5082265;28;20402;-65
2023/03/09 12:33:41;;;;;;;19.15;15.95;;;4.00;99.90;;;;;;5079693;28;20036;-67
2023/03/09 12:36:28;;;;;;;18.83;15.65;;;4.00;99.90;;;;;;5068793;28;20166;-67
2023/03/09 12:39:21;;;;;;;16.48;14.50;;;4.00;99.90;;;;;;5084312;28;20127;-65
2023/03/09 12:42:16;;;;;;;17.77;15.43;;;4.00;99.90;;;;;;5061787;28;20552;-65
2023/03/09 12:44:47;;;;;;;17.38;15.15;;;4.00;99.90;;;;;;5076776;28;20470;-66
2023/03/09 12:47:47;;;;;;;17.48;15.57;;;4.00;99.90;;;;;;5071023;28;20072;-66
2023/03/09 12:50:24;;;;;;;16.30;14.52;;;4.00;99.90;;;;;;5085806;28;20039;-65